Latest Weather Observations for St Kilda Harbour RMYS

IDV60901

Issued at 9:31 pm EDT Thursday 22 November 2018 (issued every 10 minutes, with the page automatically refreshed every 10 minutes)

About weather observations | Map of Melbourne area stations | Latest observations for Melbourne area | Other Formats
Station Details ID: 086220 Name: ST KILDA HARBOUR - RMYS Lat: -37.86 Lon: 144.96 Height: 6.4 m
Data from the previous 72 hours. | See also: Recent months for locations in Victoria
Date/Time
EDT
Temp
°C
App
Temp
°C
Dew
Point
°C
Rel
Hum
%
Delta-T
°C
Wind Press
QNH
hPa
Press
MSL
hPa
Rain since
9am
mm
Dir  Spd
km/h
Gust
km/h
Spd
kts
Gust
kts
22/09:30pm - - - - - W 35 46 19 25 - - -
22/09:18pm - - - - - WSW 43 56 23 30 - - -
22/09:00pm - - - - - SW 48 57 26 31 - - -
22/08:30pm - - - - - SW 44 54 24 29 - - -
22/08:00pm - - - - - SW 46 54 25 29 - - -
22/07:30pm - - - - - SSW 39 46 21 25 - - -
22/07:00pm - - - - - SSW 41 48 22 26 - - -
22/06:30pm - - - - - SSW 41 50 22 27 - - -
22/06:00pm - - - - - SSW 33 43 18 23 - - -
22/05:30pm - - - - - SSW 35 41 19 22 - - -
22/05:00pm - - - - - S 30 37 16 20 - - -
22/04:30pm - - - - - S 30 35 16 19 - - -
22/04:00pm - - - - - S 28 33 15 18 - - -
22/03:30pm - - - - - SSW 22 33 12 18 - - -
22/03:00pm - - - - - SSW 26 33 14 18 - - -
22/02:30pm - - - - - SW 28 37 15 20 - - -
22/02:29pm - - - - - SW 28 37 15 20 - - -
22/02:00pm - - - - - W 7 13 4 7 - - -
22/01:30pm - - - - - NW 20 41 11 22 - - -
22/01:21pm - - - - - NW 26 41 14 22 - - -
22/01:00pm - - - - - NW 11 19 6 10 - - -
22/12:30pm - - - - - WNW 15 24 8 13 - - -
22/12:00pm - - - - - NNW 15 24 8 13 - - -
22/11:30am - - - - - NNW 19 28 10 15 - - -
22/11:00am - - - - - N 17 30 9 16 - - -
22/10:30am - - - - - N 17 30 9 16 - - -
22/10:00am - - - - - N 22 32 12 17 - - -
22/09:30am - - - - - N 22 35 12 19 - - -
22/09:00am - - - - - N 24 39 13 21 - - -
22/08:30am - - - - - N 28 46 15 25 - - -
22/08:00am - - - - - N 22 32 12 17 - - -
22/07:30am - - - - - N 30 43 16 23 - - -
22/07:00am - - - - - N 20 33 11 18 - - -
22/06:30am - - - - - N 19 28 10 15 - - -
22/06:00am - - - - - NNE 17 28 9 15 - - -
22/05:30am - - - - - NNE 15 22 8 12 - - -
22/05:00am - - - - - NNE 17 24 9 13 - - -
22/04:30am - - - - - NNE 17 22 9 12 - - -
22/04:00am - - - - - NNE 15 24 8 13 - - -
22/03:30am - - - - - NNE 15 20 8 11 - - -
22/03:00am - - - - - NE 17 22 9 12 - - -
22/02:30am - - - - - NE 20 30 11 16 - - -
22/02:00am - - - - - NE 17 30 9 16 - - -
22/01:30am - - - - - NE 19 28 10 15 - - -
22/01:00am - - - - - ENE 19 24 10 13 - - -
22/12:30am - - - - - ENE 15 22 8 12 - - -
22/12:00am - - - - - ENE 15 20 8 11 - - -
 
Date/Time
EDT
Temp
°C
App
Temp
°C
Dew
Point
°C
Rel
Hum
%
Delta-T
°C
Wind Press
QNH
hPa
Press
MSL
hPa
Rain since
9am
mm
Dir  Spd
km/h
Gust
km/h
Spd
kts
Gust
kts
21/11:30pm - - - - - ENE 9 13 5 7 - - -
21/11:00pm - - - - - ESE 2 6 1 3 - - -
21/10:30pm - - - - - W 15 20 8 11 - - -
21/10:00pm - - - - - W 26 33 14 18 - - -
21/09:40pm - - - - - W 33 46 18 25 - - -
21/09:30pm - - - - - WSW 41 48 22 26 - - -
21/09:00pm - - - - - WSW 56 67 30 36 - - -
21/08:52pm - - - - - W 41 65 22 35 - - -
21/08:49pm - - - - - W 33 56 18 30 - - -
21/08:30pm - - - - - NW 32 39 17 21 - - -
21/08:13pm - - - - - NW 30 50 16 27 - - -
21/08:00pm - - - - - NNW 26 37 14 20 - - -
21/07:30pm - - - - - NW 43 57 23 31 - - -
21/07:23pm - - - - - NNW 37 57 20 31 - - -
21/07:00pm - - - - - NNW 24 37 13 20 - - -
21/06:30pm - - - - - N 19 26 10 14 - - -
21/06:00pm - - - - - N 24 43 13 23 - - -
21/05:30pm - - - - - NNW 20 33 11 18 - - -
21/05:00pm - - - - - WSW 6 9 3 5 - - -
21/04:30pm - - - - - S 22 26 12 14 - - -
21/04:00pm - - - - - SSE 24 30 13 16 - - -
21/03:30pm - - - - - S 24 28 13 15 - - -
21/03:00pm - - - - - S 24 26 13 14 - - -
21/02:30pm - - - - - S 20 22 11 12 - - -
21/02:00pm - - - - - SSW 20 22 11 12 - - -
21/01:30pm - - - - - S 17 20 9 11 - - -
21/01:00pm - - - - - SSE 15 19 8 10 - - -
21/12:30pm - - - - - S 15 19 8 10 - - -
21/12:00pm - - - - - S 15 20 8 11 - - -
21/11:30am - - - - - SSW 13 17 7 9 - - -
21/11:00am - - - - - S 9 13 5 7 - - -
21/10:30am - - - - - SW 9 13 5 7 - - -
21/10:00am - - - - - SW 7 13 4 7 - - -
21/09:30am - - - - - WSW 9 15 5 8 - - -
21/09:00am - - - - - WSW 15 19 8 10 - - -
21/08:30am - - - - - WSW 15 20 8 11 - - -
21/08:00am - - - - - W 20 28 11 15 - - -
21/07:30am - - - - - W 24 30 13 16 - - -
21/07:00am - - - - - W 24 30 13 16 - - -
21/06:30am - - - - - W 24 32 13 17 - - -
21/06:00am - - - - - W 20 28 11 15 - - -
21/05:30am - - - - - W 22 28 12 15 - - -
21/05:00am - - - - - W 24 33 13 18 - - -
21/04:30am - - - - - WSW 33 43 18 23 - - -
21/04:00am - - - - - WSW 41 50 22 27 - - -
21/03:30am - - - - - WSW 41 50 22 27 - - -
21/03:00am - - - - - WSW 46 56 25 30 - - -
21/02:30am - - - - - WSW 46 59 25 32 - - -
21/02:00am - - - - - W 41 56 22 30 - - -
21/01:30am - - - - - WSW 22 35 12 19 - - -
21/01:00am - - - - - W 9 13 5 7 - - -
21/12:30am - - - - - WSW 13 19 7 10 - - -
21/12:00am - - - - - WSW 9 17 5 9 - - -
 
Date/Time
EDT
Temp
°C
App
Temp
°C
Dew
Point
°C
Rel
Hum
%
Delta-T
°C
Wind Press
QNH
hPa
Press
MSL
hPa
Rain since
9am
mm
Dir  Spd
km/h
Gust
km/h
Spd
kts
Gust
kts
20/11:30pm - - - - - WSW 19 26 10 14 - - -
20/11:00pm - - - - - SW 13 19 7 10 - - -
20/10:30pm - - - - - SSW 7 9 4 5 - - -
20/10:00pm - - - - - S 7 9 4 5 - - -
20/09:30pm - - - - - SW 22 24 12 13 - - -
20/09:00pm - - - - - SW 30 33 16 18 - - -
20/08:30pm - - - - - SW 26 30 14 16 - - -
20/08:00pm - - - - - WSW 28 32 15 17 - - -
20/07:30pm - - - - - NNW 9 15 5 8 - - -
20/07:00pm - - - - - NE 11 20 6 11 - - -
20/06:30pm - - - - - NE 13 22 7 12 - - -
20/06:00pm - - - - - ENE 19 28 10 15 - - -
20/05:30pm - - - - - E 19 24 10 13 - - -
20/05:00pm - - - - - SSE 22 28 12 15 - - -
20/04:44pm - - - - - SSW 30 43 16 23 - - -
20/04:30pm - - - - - WSW 50 63 27 34 - - -
20/04:07pm - - - - - SW 35 91 19 49 - - -
20/04:06pm - - - - - SW 30 80 16 43 - - -
20/04:00pm - - - - - SW 28 30 15 16 - - -
20/03:30pm - - - - - NNW 2 7 1 4 - - -
20/03:00pm - - - - - SE 13 17 7 9 - - -
20/02:30pm - - - - - NE 9 19 5 10 - - -
20/02:00pm - - - - - NNE 19 33 10 18 - - -
20/01:30pm - - - - - N 19 33 10 18 - - -
20/01:00pm - - - - - N 20 30 11 16 - - -
20/12:30pm - - - - - N 24 37 13 20 - - -
20/12:00pm - - - - - N 22 30 12 16 - - -
20/11:30am - - - - - NNW 20 26 11 14 - - -
20/11:00am - - - - - NNW 28 41 15 22 - - -
20/10:31am - - - - - N 28 48 15 26 - - -
20/10:30am - - - - - N 30 48 16 26 - - -
20/10:00am - - - - - N 32 48 17 26 - - -
20/09:30am - - - - - NNW 19 30 10 16 - - -
20/09:00am - - - - - N 28 41 15 22 - - -
20/08:30am - - - - - N 24 35 13 19 - - -
20/08:00am - - - - - NNW 24 43 13 23 - - -
20/07:30am - - - - - N 19 30 10 16 - - -
20/07:00am - - - - - NNE 24 32 13 17 - - -
20/06:30am - - - - - N 20 35 11 19 - - -
20/06:00am - - - - - N 19 28 10 15 - - -
20/05:30am - - - - - NNE 20 32 11 17 - - -
20/05:00am - - - - - NNE 19 32 10 17 - - -
20/04:30am - - - - - NNE 17 28 9 15 - - -
20/04:00am - - - - - NNE 15 22 8 12 - - -
20/03:30am - - - - - NNE 13 20 7 11 - - -
20/03:00am - - - - - NNE 15 22 8 12 - - -
20/02:30am - - - - - NNE 15 20 8 11 - - -
20/02:00am - - - - - NNE 13 20 7 11 - - -
20/01:30am - - - - - NNE 17 26 9 14 - - -
20/01:00am - - - - - NNE 13 20 7 11 - - -
20/12:30am - - - - - NE 17 22 9 12 - - -
20/12:00am - - - - - NE 19 28 10 15 - - -
 
Date/Time
EDT
Temp
°C
App
Temp
°C
Dew
Point
°C
Rel
Hum
%
Delta-T
°C
Wind Press
QNH
hPa
Press
MSL
hPa
Rain since
9am
mm
Dir  Spd
km/h
Gust
km/h
Spd
kts
Gust
kts
19/11:30pm - - - - - NE 15 22 8 12 - - -
19/11:00pm - - - - - NE 17 22 9 12 - - -
19/10:30pm - - - - - NE 13 19 7 10 - - -
19/10:00pm - - - - - NE 17 24 9 13 - - -

Latest Capital City Observations: Canberra | Sydney | Melbourne | Brisbane | Adelaide | Perth | Hobart | Darwin

Other Formats:

Comma delimited format used in spreadsheet applications
http://www.bom.gov.au/fwo/IDV60901/IDV60901.95864.axf

JavaScript Object Notation format (JSON) in row-major order
http://www.bom.gov.au/fwo/IDV60901/IDV60901.95864.json